Time;durP1;ratioP1;P1;durP2;ratioP2;P2;SDS_P1;SDS_P2;PMS_P1;PMS_P2;Temp;Humidity;BMP_temperature;BMP_pressure;BME280_temperature;BME280_humidity;BME280_pressure;Samples;Min_cycle;Max_cycle;Signal;HPM_P1;HPM_P2
2024/01/12 00:02:17;;;;;;;0.50;0.40;;;0.30;99.90;;;;;;5020806;28;20208;-81
2024/01/12 00:04:44;;;;;;;0.50;0.50;;;0.30;99.90;;;;;;5021337;28;20227;-81
2024/01/12 00:07:11;;;;;;;3.25;1.60;;;0.30;99.90;;;;;;5020265;28;20214;-81
2024/01/12 00:09:39;;;;;;;1.13;1.13;;;0.30;99.90;;;;;;5024110;28;20195;-81
2024/01/12 00:12:06;;;;;;;2.90;2.70;;;0.30;99.90;;;;;;5039814;28;20192;-81
2024/01/12 00:14:33;;;;;;;0.50;0.40;;;0.40;99.90;;;;;;5039592;28;20211;-81
2024/01/12 00:16:59;;;;;;;6.22;5.68;;;0.40;99.90;;;;;;5039610;28;20199;-81
2024/01/12 00:19:26;;;;;;;0.77;0.77;;;0.40;99.90;;;;;;5022122;28;20212;-79
2024/01/12 00:21:54;;;;;;;1.45;1.35;;;0.40;99.90;;;;;;5020387;28;20201;-81
2024/01/12 00:24:21;;;;;;;0.50;0.50;;;0.40;99.90;;;;;;5029160;28;20223;-81
2024/01/12 00:26:49;;;;;;;0.50;0.50;;;0.40;99.90;;;;;;5025887;28;20197;-81
2024/01/12 00:29:16;;;;;;;0.50;0.40;;;0.40;99.90;;;;;;5019636;28;20200;-81
2024/01/12 00:31:43;;;;;;;2.50;1.30;;;0.40;99.90;;;;;;5030665;28;20200;-81
2024/01/12 00:34:10;;;;;;;1.58;1.58;;;0.40;99.90;;;;;;5038693;28;20261;-80
2024/01/12 00:36:37;;;;;;;3.92;3.72;;;0.40;99.90;;;;;;5039465;28;20215;-80
2024/01/12 00:39:04;;;;;;;0.50;0.40;;;0.40;99.90;;;;;;5039247;28;20840;-81
2024/01/12 00:41:31;;;;;;;0.50;0.40;;;0.40;99.90;;;;;;5038759;28;20202;-81
2024/01/12 00:43:59;;;;;;;2.45;2.25;;;0.50;99.90;;;;;;5039440;28;20222;-81
2024/01/12 00:46:26;;;;;;;0.50;0.50;;;0.40;99.90;;;;;;5038897;28;20220;-81
2024/01/12 00:48:53;;;;;;;0.50;0.47;;;0.40;99.90;;;;;;5038796;28;20198;-78
2024/01/12 00:51:19;;;;;;;0.82;0.82;;;0.30;99.90;;;;;;5038669;28;20554;-81
2024/01/12 00:53:46;;;;;;;0.50;0.40;;;0.30;99.90;;;;;;5040152;28;20198;-81
2024/01/12 00:56:13;;;;;;;5.03;3.47;;;0.40;99.90;;;;;;5042335;28;20226;-81
2024/01/12 00:58:40;;;;;;;5.10;3.45;;;0.40;99.90;;;;;;5042488;28;20191;-81
2024/01/12 01:01:08;;;;;;;1.00;1.00;;;0.40;99.90;;;;;;5027512;28;20200;-81
2024/01/12 01:03:37;;;;;;;0.65;0.65;;;0.40;99.90;;;;;;5022470;28;20219;-81
2024/01/12 01:06:04;;;;;;;1.55;1.45;;;0.30;99.90;;;;;;5023344;28;20595;-81
2024/01/12 01:08:31;;;;;;;3.42;3.22;;;0.30;99.90;;;;;;5032330;28;20192;-81
2024/01/12 01:10:57;;;;;;;0.50;0.40;;;0.30;99.90;;;;;;5042163;28;20196;-80
2024/01/12 01:13:24;;;;;;;1.13;1.02;;;0.30;99.90;;;;;;5042445;28;20195;-81
2024/01/12 01:15:51;;;;;;;3.25;2.70;;;0.40;99.90;;;;;;5041249;28;20220;-82
2024/01/12 01:18:19;;;;;;;0.65;0.63;;;0.40;99.90;;;;;;5042028;28;20234;-81
2024/01/12 01:20:46;;;;;;;0.50;0.40;;;0.30;99.90;;;;;;5022976;28;20192;-81
2024/01/12 01:23:12;;;;;;;2.25;1.95;;;0.30;99.90;;;;;;5037112;28;20227;-81
2024/01/12 01:25:39;;;;;;;0.50;0.40;;;0.30;99.90;;;;;;5041383;28;20239;-81
2024/01/12 01:28:06;;;;;;;0.50;0.50;;;0.40;99.90;;;;;;5027635;28;20889;-81
2024/01/12 01:30:33;;;;;;;3.65;3.08;;;0.50;99.90;;;;;;5021568;28;20223;-81
2024/01/12 01:33:00;;;;;;;4.15;2.72;;;0.50;99.90;;;;;;5035624;28;20196;-81
2024/01/12 01:35:28;;;;;;;1.05;0.90;;;0.50;99.90;;;;;;5042166;28;20211;-81
2024/01/12 01:37:55;;;;;;;1.25;1.25;;;0.50;99.90;;;;;;5042480;28;20188;-80
2024/01/12 01:40:21;;;;;;;0.80;0.80;;;0.50;99.90;;;;;;5040918;28;20192;-80
2024/01/12 01:42:49;;;;;;;0.85;0.85;;;0.50;99.90;;;;;;5037825;28;20264;-81
2024/01/12 01:45:17;;;;;;;0.50;0.50;;;0.50;99.90;;;;;;5027869;28;20212;-78
2024/01/12 01:47:44;;;;;;;3.20;3.10;;;0.50;99.90;;;;;;5031647;28;20199;-81
2024/01/12 01:50:13;;;;;;;0.50;0.40;;;0.50;99.90;;;;;;5042578;28;20655;-81
2024/01/12 01:52:42;;;;;;;0.50;0.40;;;0.50;99.90;;;;;;5023949;28;20198;-81
2024/01/12 01:55:10;;;;;;;2.25;2.15;;;0.50;99.90;;;;;;5021930;28;20850;-81
2024/01/12 01:57:39;;;;;;;0.50;0.40;;;0.50;99.90;;;;;;5021360;28;20189;-81
2024/01/12 02:00:06;;;;;;;0.50;0.40;;;0.50;99.90;;;;;;5021689;28;20220;-81
2024/01/12 02:02:34;;;;;;;0.50;0.40;;;0.50;99.90;;;;;;5021395;28;20193;-81
2024/01/12 02:05:02;;;;;;;0.50;0.40;;;0.50;99.90;;;;;;5021355;28;20217;-81
2024/01/12 02:07:30;;;;;;;0.50;0.50;;;0.60;99.90;;;;;;5021232;28;20250;-81
2024/01/12 02:09:59;;;;;;;0.50;0.40;;;0.60;99.90;;;;;;5021540;28;20195;-81
2024/01/12 02:12:25;;;;;;;0.52;0.52;;;0.60;99.90;;;;;;5022079;28;20220;-79
2024/01/12 02:14:52;;;;;;;0.60;0.60;;;0.60;99.90;;;;;;5025526;28;20212;-81
2024/01/12 02:17:19;;;;;;;0.82;0.82;;;0.60;99.90;;;;;;5041821;28;20196;-80
2024/01/12 02:19:46;;;;;;;0.50;0.40;;;0.60;99.90;;;;;;5041128;28;20215;-81
2024/01/12 02:22:14;;;;;;;0.50;0.40;;;0.60;99.90;;;;;;5042093;28;20291;-81
2024/01/12 02:24:40;;;;;;;0.50;0.40;;;0.60;99.90;;;;;;5041683;28;20224;-81
2024/01/12 02:27:07;;;;;;;0.50;0.40;;;0.60;99.90;;;;;;5040874;28;20196;-81
2024/01/12 02:29:34;;;;;;;0.50;0.40;;;0.60;99.90;;;;;;5040768;28;20198;-82
2024/01/12 02:32:01;;;;;;;0.77;0.77;;;0.60;99.90;;;;;;5027888;28;20197;-81
2024/01/12 02:34:28;;;;;;;0.50;0.50;;;0.60;99.90;;;;;;5020110;28;20194;-80
2024/01/12 02:36:54;;;;;;;0.50;0.40;;;0.60;99.90;;;;;;5019921;28;20203;-81
2024/01/12 02:39:22;;;;;;;0.50;0.40;;;0.60;99.90;;;;;;5035788;28;20198;-80
2024/01/12 02:41:49;;;;;;;0.50;0.40;;;0.70;99.90;;;;;;5038929;28;20192;-82
2024/01/12 02:44:16;;;;;;;0.80;0.80;;;0.70;99.90;;;;;;5031176;28;20228;-80
2024/01/12 02:46:43;;;;;;;0.50;0.40;;;0.70;99.90;;;;;;5020237;28;20588;-81
2024/01/12 02:49:09;;;;;;;0.50;0.50;;;0.70;99.90;;;;;;5037583;28;20192;-80
2024/01/12 02:51:36;;;;;;;0.50;0.40;;;0.70;99.90;;;;;;5037682;28;20188;-80
2024/01/12 02:54:04;;;;;;;0.80;0.80;;;0.70;99.90;;;;;;5022378;28;20193;-80
2024/01/12 02:56:32;;;;;;;2.05;1.95;;;0.70;99.90;;;;;;5018389;28;20216;-81
2024/01/12 02:58:59;;;;;;;0.50;0.40;;;0.70;99.90;;;;;;5018407;28;20203;-80
2024/01/12 03:01:26;;;;;;;0.50;0.40;;;0.70;99.90;;;;;;5018528;28;20218;-80
2024/01/12 03:03:52;;;;;;;0.50;0.40;;;0.70;99.90;;;;;;5018002;28;20234;-81
2024/01/12 03:06:19;;;;;;;0.50;0.40;;;0.70;99.90;;;;;;5017578;28;20706;-80
2024/01/12 03:08:46;;;;;;;0.50;0.40;;;0.70;99.90;;;;;;5017681;28;20200;-80
2024/01/12 03:11:13;;;;;;;1.95;1.58;;;0.70;99.90;;;;;;5017984;28;20197;-80
2024/01/12 03:13:41;;;;;;;3.28;3.08;;;0.80;99.90;;;;;;5017744;28;20191;-81
2024/01/12 03:16:18;;;;;;;0.50;0.40;;;0.80;99.90;;;;;;5017858;28;20236;-81
2024/01/12 03:18:45;;;;;;;0.50;0.40;;;0.80;99.90;;;;;;5018825;28;20196;-80
2024/01/12 03:21:12;;;;;;;0.50;0.40;;;0.70;99.90;;;;;;5037225;28;20192;-80
2024/01/12 03:23:38;;;;;;;0.50;0.50;;;0.70;99.90;;;;;;5036999;28;20231;-81
2024/01/12 03:26:05;;;;;;;0.50;0.40;;;0.70;99.90;;;;;;5037063;28;20222;-80
2024/01/12 03:28:34;;;;;;;0.60;0.60;;;0.80;99.90;;;;;;5036547;28;20440;-80
2024/01/12 03:31:03;;;;;;;1.45;1.35;;;0.80;99.90;;;;;;5037242;28;20223;-80
2024/01/12 03:33:30;;;;;;;0.50;0.40;;;0.80;99.90;;;;;;5037206;28;20187;-78
2024/01/12 03:35:57;;;;;;;0.52;0.43;;;0.90;99.90;;;;;;5009009;28;20585;-80
2024/01/12 03:38:24;;;;;;;0.95;0.95;;;0.80;99.90;;;;;;5016957;28;20203;-80
2024/01/12 03:40:51;;;;;;;0.50;0.40;;;0.80;99.90;;;;;;5016678;28;20196;-80
2024/01/12 03:43:18;;;;;;;0.50;0.40;;;0.80;99.90;;;;;;5016836;28;20192;-79
2024/01/12 03:45:44;;;;;;;0.50;0.40;;;0.90;99.90;;;;;;5028289;28;20232;-80
2024/01/12 03:48:12;;;;;;;0.50;0.40;;;0.80;99.90;;;;;;5024508;28;20211;-81
2024/01/12 03:50:39;;;;;;;0.50;0.40;;;0.80;99.90;;;;;;5019993;28;20197;-81
2024/01/12 03:53:06;;;;;;;0.50;0.40;;;0.80;99.90;;;;;;5020132;28;20189;-81
2024/01/12 03:55:33;;;;;;;0.50;0.40;;;0.80;99.90;;;;;;5020155;28;20215;-81
2024/01/12 03:58:00;;;;;;;0.50;0.40;;;0.80;99.90;;;;;;5019659;28;20196;-81
2024/01/12 04:00:26;;;;;;;0.50;0.43;;;0.80;99.90;;;;;;5020263;28;20199;-81
2024/01/12 04:02:53;;;;;;;0.50;0.40;;;0.80;99.90;;;;;;5019791;28;20578;-81
2024/01/12 04:05:21;;;;;;;0.57;0.40;;;0.80;99.90;;;;;;5018862;28;20226;-80
2024/01/12 04:07:48;;;;;;;3.20;2.15;;;0.90;99.90;;;;;;5019707;28;20197;-81
2024/01/12 04:10:15;;;;;;;0.50;0.40;;;0.80;99.90;;;;;;5019413;28;20193;-82
2024/01/12 04:12:42;;;;;;;0.47;0.40;;;0.80;99.90;;;;;;5019114;28;20200;-81
2024/01/12 04:15:09;;;;;;;11.90;7.53;;;0.80;99.90;;;;;;5018866;28;20592;-80
2024/01/12 04:17:36;;;;;;;0.50;0.40;;;0.80;99.90;;;;;;5019236;28;20192;-80
2024/01/12 04:20:04;;;;;;;0.50;0.40;;;0.80;99.90;;;;;;5019638;28;20243;-81
2024/01/12 04:22:32;;;;;;;0.70;0.70;;;0.80;99.90;;;;;;5019463;28;20203;-82
2024/01/12 04:24:59;;;;;;;3.90;1.95;;;0.80;99.90;;;;;;5020199;28;20584;-81
2024/01/12 04:27:26;;;;;;;0.70;0.70;;;0.90;99.90;;;;;;5023228;28;20200;-81
2024/01/12 04:29:53;;;;;;;0.50;0.40;;;0.90;99.90;;;;;;5022679;28;20697;-80
2024/01/12 04:32:20;;;;;;;0.50;0.40;;;0.90;99.90;;;;;;5041592;28;20568;-82
2024/01/12 04:34:46;;;;;;;0.50;0.40;;;0.90;99.90;;;;;;5049821;28;20222;-82
2024/01/12 04:37:13;;;;;;;0.50;0.40;;;0.80;99.90;;;;;;5051504;28;20192;-82
2024/01/12 04:39:42;;;;;;;0.60;0.40;;;0.80;99.90;;;;;;5028304;28;20196;-81
2024/01/12 04:42:09;;;;;;;3.00;2.90;;;0.80;99.90;;;;;;5025163;28;20192;-83
2024/01/12 04:44:35;;;;;;;0.50;0.40;;;0.80;99.90;;;;;;5020274;28;20235;-82
2024/01/12 04:47:05;;;;;;;0.50;0.40;;;0.80;99.90;;;;;;5020354;28;20200;-82
2024/01/12 04:49:32;;;;;;;12.25;3.65;;;0.90;99.90;;;;;;5020403;28;20256;-82
2024/01/12 04:51:58;;;;;;;0.50;0.43;;;0.80;99.90;;;;;;5021007;28;20199;-83
2024/01/12 04:54:25;;;;;;;0.50;0.40;;;0.80;99.90;;;;;;5026993;28;20206;-82
2024/01/12 04:56:53;;;;;;;0.50;0.50;;;0.70;99.90;;;;;;5039808;28;20662;-82
2024/01/12 04:59:20;;;;;;;0.50;0.40;;;0.80;99.90;;;;;;5035509;28;20682;-82
2024/01/12 05:01:47;;;;;;;0.82;0.82;;;0.80;99.90;;;;;;5021838;28;20203;-82
2024/01/12 05:04:14;;;;;;;0.50;0.40;;;0.80;99.90;;;;;;5021849;28;20226;-82
2024/01/12 05:06:40;;;;;;;0.50;0.40;;;0.80;99.90;;;;;;5036946;28;20346;-81
2024/01/12 05:09:07;;;;;;;4.43;4.13;;;0.90;99.90;;;;;;5040739;28;20192;-82
2024/01/12 05:11:34;;;;;;;0.50;0.40;;;0.90;99.90;;;;;;5040652;28;20200;-82
2024/01/12 05:14:02;;;;;;;0.50;0.50;;;0.90;99.90;;;;;;5040287;28;20204;-80
2024/01/12 05:16:29;;;;;;;2.03;1.92;;;0.90;99.90;;;;;;5039898;28;20218;-82
2024/01/12 05:18:55;;;;;;;0.50;0.40;;;1.00;99.90;;;;;;5039815;28;20279;-80
2024/01/12 05:21:22;;;;;;;0.50;0.40;;;0.90;99.90;;;;;;5040137;28;20196;-81
2024/01/12 05:23:49;;;;;;;0.47;0.40;;;0.90;99.90;;;;;;5040071;28;20198;-81
2024/01/12 05:26:16;;;;;;;0.50;0.40;;;0.90;99.90;;;;;;5039332;28;20226;-81
2024/01/12 05:28:43;;;;;;;2.35;1.52;;;0.90;99.90;;;;;;5040015;28;20230;-81
2024/01/12 05:31:11;;;;;;;2.67;2.58;;;0.90;99.90;;;;;;5036873;28;20207;-81
2024/01/12 05:33:38;;;;;;;1.92;1.83;;;0.90;99.90;;;;;;5020140;28;20196;-81
2024/01/12 05:36:05;;;;;;;0.50;0.40;;;0.90;99.90;;;;;;5030785;28;20687;-82
2024/01/12 05:38:32;;;;;;;0.50;0.40;;;0.90;99.90;;;;;;5031064;28;20196;-81
2024/01/12 05:40:58;;;;;;;0.50;0.40;;;0.90;99.90;;;;;;5029819;28;20466;-80
2024/01/12 05:43:26;;;;;;;0.50;0.40;;;0.90;99.90;;;;;;5030623;28;20289;-80
2024/01/12 05:45:53;;;;;;;2.45;2.35;;;0.90;99.90;;;;;;5036611;28;20292;-81
2024/01/12 05:48:21;;;;;;;0.43;0.40;;;1.00;99.90;;;;;;5025310;28;20195;-81
2024/01/12 05:50:47;;;;;;;0.50;0.40;;;1.00;99.90;;;;;;5045098;28;20196;-79
2024/01/12 05:53:14;;;;;;;0.50;0.40;;;0.90;99.90;;;;;;5040405;28;20264;-81
2024/01/12 05:55:41;;;;;;;0.50;0.40;;;1.00;99.90;;;;;;5029233;28;20217;-81
2024/01/12 05:58:08;;;;;;;0.50;0.40;;;0.90;99.90;;;;;;5043181;28;20192;-82
2024/01/12 06:00:34;;;;;;;0.50;0.40;;;0.90;99.90;;;;;;5043030;28;20197;-80
2024/01/12 06:03:01;;;;;;;0.50;0.40;;;0.90;99.90;;;;;;5037849;28;20184;-81
2024/01/12 06:05:29;;;;;;;0.50;0.40;;;0.90;99.90;;;;;;5038817;28;20200;-82
2024/01/12 06:07:56;;;;;;;0.50;0.40;;;0.90;99.90;;;;;;5030477;28;20196;-82
2024/01/12 06:10:23;;;;;;;0.50;0.40;;;0.90;99.90;;;;;;5018587;28;20192;-82
2024/01/12 06:12:49;;;;;;;0.50;0.40;;;0.90;99.90;;;;;;5019562;28;20193;-81
2024/01/12 06:15:16;;;;;;;2.47;2.28;;;1.00;99.90;;;;;;5017649;28;20223;-81
2024/01/12 06:17:43;;;;;;;0.50;0.40;;;1.00;99.90;;;;;;5017832;28;20201;-82
2024/01/12 06:20:11;;;;;;;0.55;0.52;;;1.00;99.90;;;;;;5017640;28;20668;-83
2024/01/12 06:22:39;;;;;;;25.73;24.45;;;1.00;99.90;;;;;;5019314;28;20189;-83
2024/01/12 06:25:06;;;;;;;0.40;0.40;;;1.00;99.90;;;;;;5036419;28;20227;-83
2024/01/12 06:27:33;;;;;;;0.47;0.40;;;1.00;99.90;;;;;;5038139;28;20198;-84
2024/01/12 06:30:00;;;;;;;2.28;2.20;;;1.00;99.90;;;;;;5037878;28;20222;-83
2024/01/12 06:32:26;;;;;;;0.50;0.40;;;1.00;99.90;;;;;;5032736;28;20193;-83
2024/01/12 06:34:53;;;;;;;0.50;0.40;;;1.10;99.90;;;;;;5018662;28;20219;-84
2024/01/12 06:37:20;;;;;;;0.50;0.40;;;1.00;99.90;;;;;;5022132;28;20196;-83
2024/01/12 06:39:49;;;;;;;0.50;0.40;;;1.00;99.90;;;;;;5037154;28;20207;-83
2024/01/12 06:42:16;;;;;;;0.50;0.40;;;1.00;99.90;;;;;;5012197;28;20627;-82
2024/01/12 06:44:43;;;;;;;0.50;0.40;;;1.00;99.90;;;;;;5037086;28;20215;-83
2024/01/12 06:47:09;;;;;;;0.50;0.40;;;0.90;99.90;;;;;;5036867;28;20200;-83
2024/01/12 06:49:36;;;;;;;0.50;0.40;;;0.90;99.90;;;;;;5038243;28;20198;-83
2024/01/12 06:52:03;;;;;;;0.50;0.40;;;1.00;99.90;;;;;;5040072;28;20202;-83
2024/01/12 06:54:30;;;;;;;1.25;1.25;;;1.00;99.90;;;;;;5031784;28;20189;-83
2024/01/12 06:56:58;;;;;;;0.50;0.40;;;1.10;99.90;;;;;;5019279;28;20203;-84
2024/01/12 06:59:25;;;;;;;0.50;0.40;;;1.00;99.90;;;;;;5019381;28;20197;-81
2024/01/12 07:01:52;;;;;;;0.50;0.40;;;1.10;99.90;;;;;;5019742;28;20205;-83
2024/01/12 07:04:19;;;;;;;0.50;0.40;;;1.00;99.90;;;;;;5021694;28;20693;-82
2024/01/12 07:06:46;;;;;;;4.30;1.23;;;1.00;99.90;;;;;;5031896;28;20220;-83
2024/01/12 07:09:14;;;;;;;2.15;1.13;;;1.00;99.90;;;;;;5018668;28;20203;-83
2024/01/12 07:11:42;;;;;;;2.70;2.45;;;1.10;99.90;;;;;;5019040;28;20279;-83
2024/01/12 07:14:10;;;;;;;0.73;0.73;;;1.00;99.90;;;;;;5019342;28;20193;-84
2024/01/12 07:16:37;;;;;;;0.50;0.50;;;1.00;99.90;;;;;;5018922;28;20212;-83
2024/01/12 07:19:04;;;;;;;0.50;0.40;;;1.10;99.90;;;;;;5020605;28;20196;-82
2024/01/12 07:21:31;;;;;;;2.92;2.72;;;1.10;99.90;;;;;;5038546;28;20192;-83
2024/01/12 07:23:57;;;;;;;0.68;0.68;;;1.10;99.90;;;;;;5037802;28;20198;-83
2024/01/12 07:26:24;;;;;;;0.43;0.40;;;1.10;99.90;;;;;;5036099;28;20229;-84
2024/01/12 07:28:51;;;;;;;0.50;0.40;;;1.10;99.90;;;;;;5035376;28;20196;-84
2024/01/12 07:31:19;;;;;;;0.50;0.40;;;1.10;99.90;;;;;;5023483;28;20649;-82
2024/01/12 07:33:46;;;;;;;13.50;4.43;;;1.20;99.90;;;;;;5022662;28;20207;-83
2024/01/12 07:36:13;;;;;;;0.80;0.80;;;1.20;99.90;;;;;;5026412;28;20211;-83
2024/01/12 07:38:40;;;;;;;0.50;0.40;;;1.20;99.90;;;;;;5035191;28;20206;-83
2024/01/12 07:41:06;;;;;;;2.47;2.35;;;1.20;99.90;;;;;;5035052;28;20196;-82
2024/01/12 07:43:33;;;;;;;0.50;0.40;;;1.20;99.90;;;;;;5017604;28;20200;-83
2024/01/12 07:46:00;;;;;;;4.00;3.80;;;1.20;99.90;;;;;;5024023;28;20224;-83
2024/01/12 07:48:28;;;;;;;1.40;1.30;;;1.20;99.90;;;;;;5015502;28;20199;-84
2024/01/12 07:50:55;;;;;;;0.50;0.40;;;1.20;99.90;;;;;;5016406;28;20247;-82
2024/01/12 07:53:22;;;;;;;0.50;0.40;;;1.20;99.90;;;;;;5019279;28;20195;-83
2024/01/12 07:55:49;;;;;;;0.50;0.40;;;1.20;99.90;;;;;;5020951;28;20309;-84
2024/01/12 07:58:18;;;;;;;0.50;0.40;;;1.20;99.90;;;;;;5014513;28;21974;-84
2024/01/12 08:00:45;;;;;;;3.65;3.33;;;1.20;99.90;;;;;;5014469;28;20694;-82
2024/01/12 08:03:11;;;;;;;0.50;0.40;;;1.20;99.90;;;;;;5024464;28;20195;-83
2024/01/12 08:05:40;;;;;;;0.50;0.40;;;1.30;99.90;;;;;;5028186;28;20282;-81
2024/01/12 08:08:07;;;;;;;0.50;0.40;;;1.20;99.90;;;;;;5022691;28;20652;-82
2024/01/12 08:10:33;;;;;;;0.50;0.40;;;1.20;99.90;;;;;;5027572;28;20445;-83
2024/01/12 08:13:00;;;;;;;0.50;0.40;;;1.20;99.90;;;;;;5025899;28;20203;-83
2024/01/12 08:15:27;;;;;;;0.50;0.40;;;1.20;99.90;;;;;;5014856;28;20212;-82
2024/01/12 08:17:53;;;;;;;0.50;0.40;;;1.20;99.90;;;;;;5021477;28;20206;-83
2024/01/12 08:20:20;;;;;;;0.50;0.40;;;1.20;99.90;;;;;;5022710;28;20576;-82
2024/01/12 08:22:48;;;;;;;0.40;0.40;;;1.20;99.90;;;;;;5020786;28;20211;-81
2024/01/12 08:25:15;;;;;;;0.50;0.40;;;1.30;99.90;;;;;;5011228;28;20243;-82
2024/01/12 08:27:42;;;;;;;0.50;0.40;;;1.20;99.90;;;;;;5022004;28;20202;-81
2024/01/12 08:30:09;;;;;;;0.70;0.70;;;1.20;99.90;;;;;;5022850;28;20208;-82
2024/01/12 08:32:36;;;;;;;0.43;0.40;;;1.20;99.90;;;;;;5021659;28;20282;-83
2024/01/12 08:35:03;;;;;;;0.50;0.40;;;1.20;99.90;;;;;;5021615;28;20216;-80
2024/01/12 08:37:29;;;;;;;0.50;0.40;;;1.20;99.90;;;;;;5021276;28;20199;-81
2024/01/12 08:39:58;;;;;;;2.42;2.33;;;1.20;99.90;;;;;;5029907;28;20670;-80
2024/01/12 08:42:25;;;;;;;2.65;1.05;;;1.30;99.90;;;;;;5024828;28;20304;-82
2024/01/12 08:44:52;;;;;;;1.88;1.77;;;1.30;99.90;;;;;;5024345;28;20223;-83
2024/01/12 08:47:19;;;;;;;0.50;0.40;;;1.60;99.90;;;;;;5027570;28;20277;-82
2024/01/12 08:49:46;;;;;;;1.35;1.35;;;1.70;99.90;;;;;;5029627;28;20201;-83
2024/01/12 08:52:13;;;;;;;0.50;0.50;;;1.70;99.90;;;;;;5031844;28;20206;-82
2024/01/12 08:54:39;;;;;;;0.50;0.50;;;1.80;99.90;;;;;;5021718;28;20216;-81
2024/01/12 08:57:07;;;;;;;0.65;0.65;;;2.00;99.90;;;;;;5030360;28;20563;-80
2024/01/12 08:59:34;;;;;;;1.98;1.50;;;2.10;99.90;;;;;;5033119;28;20685;-81
2024/01/12 09:02:01;;;;;;;2.53;1.88;;;2.30;99.90;;;;;;5025833;28;20211;-82
2024/01/12 09:04:28;;;;;;;0.50;0.40;;;2.30;99.90;;;;;;5009871;28;20621;-82
2024/01/12 09:06:55;;;;;;;1.23;1.13;;;2.30;99.90;;;;;;5026605;28;20217;-83
2024/01/12 09:09:21;;;;;;;1.05;1.05;;;2.30;99.90;;;;;;5030354;28;20517;-83
2024/01/12 09:11:48;;;;;;;0.52;0.50;;;2.40;99.90;;;;;;5023190;28;20199;-82
2024/01/12 09:14:17;;;;;;;1.25;1.15;;;2.40;99.90;;;;;;5025307;28;20208;-82
2024/01/12 09:16:44;;;;;;;0.50;0.50;;;2.50;99.90;;;;;;5026406;28;20193;-82
2024/01/12 09:19:10;;;;;;;1.02;0.90;;;2.50;99.90;;;;;;5027614;28;20200;-83
2024/01/12 09:21:38;;;;;;;1.23;1.15;;;2.50;99.90;;;;;;5020037;28;20192;-81
2024/01/12 09:24:05;;;;;;;3.95;0.98;;;2.50;99.90;;;;;;5020889;28;20268;-82
2024/01/12 09:26:32;;;;;;;1.45;1.35;;;2.50;99.90;;;;;;5019996;28;20223;-82
2024/01/12 09:28:59;;;;;;;0.60;0.60;;;2.50;99.90;;;;;;5020905;28;20268;-83
2024/01/12 09:31:27;;;;;;;1.35;1.27;;;2.50;99.90;;;;;;5018285;28;20196;-81
2024/01/12 09:33:54;;;;;;;1.10;1.05;;;2.60;99.90;;;;;;5020099;28;20200;-83
2024/01/12 09:36:20;;;;;;;2.08;1.33;;;2.70;99.90;;;;;;5021422;28;20208;-83
2024/01/12 09:38:47;;;;;;;1.77;1.27;;;2.60;99.90;;;;;;5033840;28;20196;-82
2024/01/12 09:41:14;;;;;;;1.25;0.65;;;2.60;99.90;;;;;;5020112;28;20219;-83
2024/01/12 09:43:43;;;;;;;1.67;1.58;;;2.70;99.90;;;;;;5020771;28;20572;-83
2024/01/12 09:46:10;;;;;;;1.25;1.05;;;2.80;99.90;;;;;;5019567;28;20576;-83
2024/01/12 09:48:40;;;;;;;7.97;4.95;;;2.90;99.90;;;;;;5018865;28;20193;-82
2024/01/12 09:51:08;;;;;;;0.52;0.52;;;2.80;99.90;;;;;;5018125;28;20205;-82
2024/01/12 09:53:36;;;;;;;0.50;0.40;;;2.80;99.90;;;;;;5022149;28;20195;-83
2024/01/12 09:56:03;;;;;;;0.50;0.40;;;2.70;99.90;;;;;;5037914;28;20297;-81
2024/01/12 09:58:30;;;;;;;0.50;0.40;;;2.60;99.90;;;;;;5026537;28;20380;-81
2024/01/12 10:00:57;;;;;;;0.50;0.40;;;2.40;99.90;;;;;;5027316;28;20200;-84
2024/01/12 10:03:26;;;;;;;0.50;0.40;;;2.40;99.90;;;;;;5029635;28;20200;-83
2024/01/12 10:05:54;;;;;;;0.50;0.50;;;2.30;99.90;;;;;;5018840;28;20284;-83
2024/01/12 10:08:21;;;;;;;0.50;0.40;;;2.20;99.90;;;;;;5036836;28;20199;-81
2024/01/12 10:10:48;;;;;;;0.50;0.40;;;2.10;99.90;;;;;;5033922;28;20737;-81
2024/01/12 10:13:15;;;;;;;1.98;1.88;;;2.00;99.90;;;;;;5035073;28;20665;-82
2024/01/12 10:15:42;;;;;;;41.55;26.08;;;2.00;99.90;;;;;;5032591;28;20695;-83
2024/01/12 10:18:09;;;;;;;0.50;0.40;;;1.90;99.90;;;;;;5023118;28;20579;-83
2024/01/12 10:20:38;;;;;;;1.25;1.25;;;1.90;99.90;;;;;;5030092;28;20598;-83
2024/01/12 10:23:08;;;;;;;1.98;1.88;;;1.90;99.90;;;;;;5037196;28;20572;-81
2024/01/12 10:25:35;;;;;;;0.82;0.82;;;1.80;99.90;;;;;;5021767;28;20669;-82
2024/01/12 10:28:02;;;;;;;0.50;0.40;;;1.80;99.90;;;;;;5037714;28;20200;-83
2024/01/12 10:30:31;;;;;;;1.98;1.15;;;1.80;99.90;;;;;;5027446;28;20202;-82
2024/01/12 10:32:58;;;;;;;0.50;0.40;;;1.70;99.90;;;;;;5016542;28;20659;-84
2024/01/12 10:35:25;;;;;;;0.50;0.40;;;1.70;99.90;;;;;;5015937;28;20232;-84
2024/01/12 10:37:55;;;;;;;0.50;0.40;;;1.80;99.90;;;;;;5030583;28;20279;-82
2024/01/12 10:40:24;;;;;;;1.45;1.38;;;1.80;99.90;;;;;;5036102;28;20192;-82
2024/01/12 10:42:53;;;;;;;1.25;0.80;;;1.90;99.90;;;;;;5036571;28;20541;-83
2024/01/12 10:45:22;;;;;;;0.50;0.40;;;1.80;99.90;;;;;;5036084;28;20223;-82
2024/01/12 10:47:56;;;;;;;0.50;0.40;;;1.90;99.90;;;;;;5019573;28;20695;-83
2024/01/12 10:50:25;;;;;;;0.50;0.50;;;1.90;99.90;;;;;;5016633;28;20256;-83
2024/01/12 10:52:59;;;;;;;0.80;0.80;;;2.00;99.90;;;;;;5014892;28;20247;-84
2024/01/12 10:55:34;;;;;;;0.50;0.50;;;2.10;99.90;;;;;;5015607;28;20220;-81
2024/01/12 10:58:02;;;;;;;0.50;0.40;;;2.00;99.90;;;;;;5023204;28;20245;-83
2024/01/12 11:00:31;;;;;;;1.60;1.52;;;1.90;99.90;;;;;;5034480;28;20242;-79
2024/01/12 11:03:01;;;;;;;1.45;1.45;;;1.90;99.90;;;;;;5036218;28;20196;-83
2024/01/12 11:05:28;;;;;;;1.67;1.00;;;2.00;99.90;;;;;;5032917;28;20231;-82
2024/01/12 11:07:58;;;;;;;0.50;0.40;;;2.00;99.90;;;;;;5032972;28;20622;-82
2024/01/12 11:10:28;;;;;;;0.60;0.60;;;2.00;99.90;;;;;;5032928;28;20294;-82
2024/01/12 11:12:56;;;;;;;0.50;0.50;;;1.90;99.90;;;;;;5033596;28;20575;-83
2024/01/12 11:15:23;;;;;;;0.50;0.40;;;1.90;99.90;;;;;;5033149;28;20289;-82
2024/01/12 11:17:50;;;;;;;1.25;1.15;;;2.00;99.90;;;;;;5032781;28;20192;-82
2024/01/12 11:20:20;;;;;;;10.80;1.50;;;2.10;99.90;;;;;;5033251;28;20206;-83
2024/01/12 11:22:48;;;;;;;0.50;0.40;;;2.10;99.90;;;;;;5032657;28;20196;-82
2024/01/12 11:25:15;;;;;;;0.50;0.50;;;2.10;99.90;;;;;;5032906;28;20215;-82
2024/01/12 11:27:48;;;;;;;4.03;2.28;;;2.20;99.90;;;;;;5021175;28;20216;-83
2024/01/12 11:30:17;;;;;;;1.75;1.63;;;2.10;99.90;;;;;;5012803;28;20196;-83
2024/01/12 11:32:45;;;;;;;1.80;1.42;;;2.10;99.90;;;;;;5012741;28;20201;-84
2024/01/12 11:35:16;;;;;;;14.18;7.97;;;2.10;99.90;;;;;;5012692;28;20216;-82
2024/01/12 11:37:44;;;;;;;8.90;3.83;;;2.10;99.90;;;;;;5012210;28;20197;-82
2024/01/12 11:40:13;;;;;;;5.78;2.80;;;2.10;99.90;;;;;;5012324;28;20196;-84
2024/01/12 11:42:40;;;;;;;1.75;1.63;;;2.00;99.90;;;;;;5012705;28;20207;-84
2024/01/12 11:45:10;;;;;;;3.50;3.25;;;2.00;99.90;;;;;;5027616;28;20632;-84
2024/01/12 11:47:38;;;;;;;4.97;2.30;;;1.90;99.90;;;;;;5029825;28;20220;-83
2024/01/12 11:50:06;;;;;;;1.67;1.58;;;1.90;99.90;;;;;;5012372;28;20204;-84
2024/01/12 11:52:33;;;;;;;1.15;1.10;;;1.90;99.90;;;;;;5012878;28;20238;-81
2024/01/12 11:55:00;;;;;;;5.50;2.08;;;1.90;99.90;;;;;;5013853;28;20748;-83
2024/01/12 11:57:27;;;;;;;1.35;1.25;;;2.00;99.90;;;;;;5013171;28;20540;-80
2024/01/12 11:59:56;;;;;;;3.35;2.38;;;1.90;99.90;;;;;;5012332;28;20652;-81
2024/01/12 12:02:25;;;;;;;2.65;2.55;;;1.90;99.90;;;;;;5010941;28;20361;-79
2024/01/12 12:04:53;;;;;;;4.40;4.10;;;1.90;99.90;;;;;;5013402;28;20742;-80
2024/01/12 12:07:25;;;;;;;1.75;1.65;;;2.00;99.90;;;;;;5023200;28;20275;-81
2024/01/12 12:09:51;;;;;;;6.22;4.45;;;1.90;99.90;;;;;;5035842;28;20200;-80
2024/01/12 12:12:18;;;;;;;1.50;1.50;;;2.00;99.90;;;;;;5034854;28;20198;-82
2024/01/12 12:14:56;;;;;;;0.50;0.40;;;2.00;99.90;;;;;;5034218;28;20212;-82
2024/01/12 12:17:27;;;;;;;0.50;0.40;;;2.00;99.90;;;;;;5017853;28;20318;-82
2024/01/12 12:19:54;;;;;;;0.95;0.93;;;2.00;99.90;;;;;;5014568;28;20201;-83
2024/01/12 12:22:21;;;;;;;8.38;3.53;;;2.00;99.90;;;;;;5014419;28;20199;-81
2024/01/12 12:24:48;;;;;;;0.88;0.88;;;2.00;99.90;;;;;;5014665;28;20223;-82
2024/01/12 12:27:16;;;;;;;10.82;5.57;;;1.90;99.90;;;;;;5014534;28;20307;-82
2024/01/12 12:29:44;;;;;;;1.55;0.90;;;2.00;99.90;;;;;;5014358;28;20549;-82
2024/01/12 12:32:12;;;;;;;4.55;4.10;;;2.00;99.90;;;;;;5014419;28;20196;-82
2024/01/12 12:34:40;;;;;;;2.47;1.88;;;2.00;99.90;;;;;;5031454;28;20199;-81
2024/01/12 12:37:09;;;;;;;8.05;2.05;;;1.90;99.90;;;;;;5015001;28;20189;-82
2024/01/12 12:39:36;;;;;;;0.70;0.70;;;2.00;99.90;;;;;;5014171;28;20617;-81
2024/01/12 12:42:04;;;;;;;0.82;0.82;;;2.00;99.90;;;;;;5014441;28;20255;-83
2024/01/12 12:44:32;;;;;;;0.50;0.50;;;2.00;99.90;;;;;;5014675;28;20212;-83
2024/01/12 12:46:59;;;;;;;10.13;4.03;;;1.90;99.90;;;;;;5014554;28;20215;-82
2024/01/12 12:49:32;;;;;;;1.00;1.00;;;1.90;99.90;;;;;;5014107;28;20718;-82
2024/01/12 12:52:01;;;;;;;0.68;0.68;;;1.90;99.90;;;;;;5018486;28;20215;-82
2024/01/12 12:54:33;;;;;;;2.20;2.13;;;2.00;99.90;;;;;;5018837;28;20208;-83
2024/01/12 12:57:01;;;;;;;2.60;1.48;;;1.90;99.90;;;;;;5019399;28;20284;-82
2024/01/12 12:59:33;;;;;;;3.88;3.58;;;1.90;99.90;;;;;;5018553;28;20192;-82